San Juan, PR

4:56 AM AST on February 14, 2016 (GMT -0400)
Condado | | Change Station
CLOSE
Current Station
Personal Weather Station
Location: San Juan, SAN JUAN
Elevation: 145 ft
Nearby Weather Stations

Elev 145 ft 18.46 °N, 66.08 °W | Updated 6 minutes ago

Scattered Clouds
Scattered Clouds
73.9 °F
Feels Like 74 °F
N
2.7
Wind Variable Wind from SSE

Today
High -- | Low -- °F
--% Chance of Precip.
Yesterday
High -- | Low -- °F
Precip. -- in
Pressure 29.97 in
Visibility 10.0 miles
Clouds Few 2400 ft
Scattered Clouds 10000 ft
Heat Index 74 °F
Dew Point 68 °F
Humidity 81%
Rainfall 0.02 in
Snow Depth Not available.
6:52 AM 6:24 PM
Waxing Crescent, 39% visible
METAR TJSJ 140756Z 00000KT 10SM FEW024 SCT100 23/21 A2997 RMK AO2 SLP148 T02330211
Pressure 29.97 in
Visibility 10.0 miles
Clouds Few 2400 ft
Scattered Clouds 10000 ft
Heat Index 74 °F
Dew Point 68 °F
Humidity 81%
Rainfall 0.02 in
Snow Depth Not available.
6:52 AM 6:24 PM
Waxing Crescent, 39% visible
METAR TJSJ 140756Z 00000KT 10SM FEW024 SCT100 23/21 A2997 RMK AO2 SLP148 T02330211

10-Day Weather Forecast

Almanac

Astronomy

Feb. 14, 2016 Rise Set
Actual Time
Civil Twilight
Nautical Twilight
Astronomical Twilight
Moon
Length of Visible Light
Length of Day
Tomorrow will be .
, % of the Moon is Illuminated

Today's Extremes

State Highs State Lows

Community

WunderPhotos

Upload Photos

1,892,763 photos uploaded!

WunderBlog® & News

Nearby

Air Quality

  Air Quality AQ Index Pollutant
Not available.

Snow Depth

Station Depth Elevation

Earthquake Activity

City Distance Mag. Time & Date
Minimum magnitude displayed is 2.5.

Coastal Water Temperatures

Place Temperature

Stations

Nearby Weather Stations

Station Location Temp. Windchill Dew Point Humidity Wind Precip. Elev Updated Type
                   

Watches & Warnings

There are currently no watches in effect.